Time;durP1;ratioP1;P1;durP2;ratioP2;P2;SDS_P1;SDS_P2;PMS_P1;PMS_P2;Temp;Humidity;BMP_temperature;BMP_pressure;BME280_temperature;BME280_humidity;BME280_pressure;Samples;Min_cycle;Max_cycle;Signal;HPM_P1;HPM_P2
2021/07/03 00:01:05;;;;;;;9.00;8.10;;;;;;;;;;5029609;28;20038;-68
2021/07/03 00:03:30;;;;;;;8.80;7.70;;;;;;;;;;5030820;28;20355;-68
2021/07/03 00:05:56;;;;;;;9.60;8.60;;;;;;;;;;5031223;28;20575;-68
2021/07/03 00:08:23;;;;;;;8.45;7.65;;;;;;;;;;5029830;28;20014;-68
2021/07/03 00:10:48;;;;;;;8.98;8.18;;;;;;;;;;5032718;28;20112;-68
2021/07/03 00:13:14;;;;;;;8.95;8.13;;;;;;;;;;5018256;28;20125;-68
2021/07/03 00:15:39;;;;;;;9.75;8.85;;;;;;;;;;5011489;28;20029;-68
2021/07/03 00:18:05;;;;;;;8.95;8.25;;;;;;;;;;5011158;28;20121;-68
2021/07/03 00:20:30;;;;;;;9.68;8.77;;;;;;;;;;5011611;28;20117;-68
2021/07/03 00:22:55;;;;;;;8.85;8.05;;;;;;;;;;5013218;28;20109;-69
2021/07/03 00:25:21;;;;;;;9.75;8.85;;;;;;;;;;5009622;28;20050;-68
2021/07/03 00:27:46;;;;;;;9.38;8.25;;;;;;;;;;5017757;28;20053;-68
2021/07/03 00:30:12;;;;;;;10.07;8.85;;;;;;;;;;5011235;28;20041;-68
2021/07/03 00:32:37;;;;;;;8.93;8.15;;;;;;;;;;5010369;28;20033;-68
2021/07/03 00:35:04;;;;;;;9.02;8.23;;;;;;;;;;5012972;28;20056;-68
2021/07/03 00:37:29;;;;;;;9.18;8.38;;;;;;;;;;5011045;28;20058;-68
2021/07/03 00:39:55;;;;;;;9.52;8.73;;;;;;;;;;5011042;28;20147;-68
2021/07/03 00:42:20;;;;;;;9.23;8.45;;;;;;;;;;5016525;28;20034;-68
2021/07/03 00:44:46;;;;;;;10.27;9.20;;;;;;;;;;5010779;28;20034;-68
2021/07/03 00:47:11;;;;;;;10.57;9.68;;;;;;;;;;5012865;28;20022;-69
2021/07/03 00:49:36;;;;;;;11.73;10.63;;;;;;;;;;5010818;28;20030;-68
2021/07/03 00:52:05;;;;;;;11.95;10.80;;;;;;;;;;5009700;28;20030;-68
2021/07/03 00:54:30;;;;;;;12.10;10.30;;;;;;;;;;5010007;28;20116;-68
2021/07/03 00:57:01;;;;;;;11.93;10.82;;;;;;;;;;5016094;28;20065;-68
2021/07/03 00:59:38;;;;;;;14.38;10.13;;;;;;;;;;5018607;28;20022;-68
2021/07/03 01:02:04;;;;;;;10.48;9.00;;;;;;;;;;5012449;28;20062;-68
2021/07/03 01:04:30;;;;;;;11.27;8.98;;;;;;;;;;5010038;28;20049;-69
2021/07/03 01:06:55;;;;;;;10.13;9.13;;;;;;;;;;5010596;28;20026;-68
2021/07/03 01:09:20;;;;;;;10.00;9.05;;;;;;;;;;5010478;28;20161;-68
2021/07/03 01:11:45;;;;;;;10.50;8.95;;;;;;;;;;5015294;28;20041;-67
2021/07/03 01:14:10;;;;;;;10.13;8.93;;;;;;;;;;5011577;28;20033;-67
2021/07/03 01:16:36;;;;;;;9.48;8.68;;;;;;;;;;5010534;28;20053;-68
2021/07/03 01:19:01;;;;;;;10.55;8.98;;;;;;;;;;5010405;28;20144;-68
2021/07/03 01:21:28;;;;;;;11.23;8.68;;;;;;;;;;5010590;28;20034;-68
2021/07/03 01:23:53;;;;;;;9.52;8.60;;;;;;;;;;5009980;28;20037;-68
2021/07/03 01:26:19;;;;;;;10.23;9.10;;;;;;;;;;5011523;28;20371;-68
2021/07/03 01:28:44;;;;;;;10.30;8.98;;;;;;;;;;5015299;28;20033;-68
2021/07/03 01:31:10;;;;;;;10.83;9.70;;;;;;;;;;5009961;28;20569;-68
2021/07/03 01:33:37;;;;;;;11.35;10.10;;;;;;;;;;5009512;28;20280;-68
2021/07/03 01:36:03;;;;;;;10.50;9.40;;;;;;;;;;5010054;28;20038;-68
2021/07/03 01:38:28;;;;;;;10.63;9.27;;;;;;;;;;5009586;28;20025;-68
2021/07/03 01:40:54;;;;;;;11.30;10.20;;;;;;;;;;5010710;28;20025;-68
2021/07/03 01:43:20;;;;;;;10.57;9.57;;;;;;;;;;5021833;28;20145;-68
2021/07/03 01:45:45;;;;;;;10.65;9.57;;;;;;;;;;5010382;28;20372;-68
2021/07/03 01:48:10;;;;;;;10.93;9.93;;;;;;;;;;5010205;28;20117;-68
2021/07/03 01:50:36;;;;;;;11.43;10.38;;;;;;;;;;5009765;28;20129;-67
2021/07/03 01:53:01;;;;;;;19.63;11.27;;;;;;;;;;5010913;28;20026;-68
2021/07/03 01:55:26;;;;;;;13.50;11.40;;;;;;;;;;5008280;28;20617;-68
2021/07/03 01:57:51;;;;;;;12.57;11.35;;;;;;;;;;5029230;28;20034;-69
2021/07/03 02:00:17;;;;;;;12.70;10.63;;;;;;;;;;5029179;28;20563;-68
2021/07/03 02:02:42;;;;;;;11.07;9.98;;;;;;;;;;5028762;28;20522;-68
2021/07/03 02:05:08;;;;;;;12.20;10.18;;;;;;;;;;5031055;28;20477;-69
2021/07/03 02:07:33;;;;;;;10.85;9.02;;;;;;;;;;5029191;28;20061;-69
2021/07/03 02:09:58;;;;;;;16.30;10.77;;;;;;;;;;5029120;28;20258;-68
2021/07/03 02:12:23;;;;;;;13.25;10.60;;;;;;;;;;5022593;28;20029;-69
2021/07/03 02:14:48;;;;;;;12.20;10.55;;;;;;;;;;5008883;28;20133;-68
2021/07/03 02:17:14;;;;;;;11.82;10.63;;;;;;;;;;5011165;28;20014;-66
2021/07/03 02:19:39;;;;;;;11.57;10.43;;;;;;;;;;5008405;28;20103;-68
2021/07/03 02:22:04;;;;;;;13.20;11.40;;;;;;;;;;5008002;28;20387;-67
2021/07/03 02:24:30;;;;;;;14.60;13.05;;;;;;;;;;5008599;28;20030;-67
2021/07/03 02:26:55;;;;;;;12.52;11.30;;;;;;;;;;5026394;28;20044;-67
2021/07/03 02:29:21;;;;;;;15.65;12.18;;;;;;;;;;5013955;28;20398;-67
2021/07/03 02:31:46;;;;;;;12.90;11.50;;;;;;;;;;5030645;28;20059;-67
2021/07/03 02:34:11;;;;;;;15.88;10.60;;;;;;;;;;5028059;28;20037;-67
2021/07/03 02:36:36;;;;;;;15.02;11.23;;;;;;;;;;5028548;28;20040;-66
2021/07/03 02:39:03;;;;;;;14.68;12.30;;;;;;;;;;5028381;28;20030;-67
2021/07/03 02:41:28;;;;;;;11.55;10.35;;;;;;;;;;5028403;28;20028;-67
2021/07/03 02:43:53;;;;;;;13.30;12.00;;;;;;;;;;5011667;28;20026;-67
2021/07/03 02:46:18;;;;;;;12.00;10.82;;;;;;;;;;5008875;28;20380;-68
2021/07/03 02:48:43;;;;;;;16.23;13.63;;;;;;;;;;5007364;28;20057;-67
2021/07/03 02:51:09;;;;;;;17.65;12.48;;;;;;;;;;5008562;28;20125;-67
2021/07/03 02:53:34;;;;;;;18.50;12.65;;;;;;;;;;5008178;28;20050;-67
2021/07/03 02:56:01;;;;;;;17.17;12.23;;;;;;;;;;5010504;28;20018;-67
2021/07/03 02:58:26;;;;;;;15.18;12.48;;;;;;;;;;5015427;28;20040;-67
2021/07/03 03:00:52;;;;;;;16.75;12.55;;;;;;;;;;5010980;28;20080;-66
2021/07/03 03:03:17;;;;;;;18.30;12.73;;;;;;;;;;5006677;28;20495;-67
2021/07/03 03:05:42;;;;;;;19.60;13.05;;;;;;;;;;5008258;28;20491;-67
2021/07/03 03:08:07;;;;;;;12.15;10.85;;;;;;;;;;5010484;28;20034;-67
2021/07/03 03:10:33;;;;;;;14.77;13.23;;;;;;;;;;5008352;28;20033;-67
2021/07/03 03:12:58;;;;;;;13.52;11.55;;;;;;;;;;5008273;28;20034;-67
2021/07/03 03:15:23;;;;;;;13.88;12.38;;;;;;;;;;5008445;28;20121;-67
2021/07/03 03:17:48;;;;;;;12.20;10.80;;;;;;;;;;5008340;28;20395;-67
2021/07/03 03:20:14;;;;;;;12.55;11.32;;;;;;;;;;5010203;28;20372;-68
2021/07/03 03:22:39;;;;;;;15.73;12.18;;;;;;;;;;5007905;28;20364;-68
2021/07/03 03:25:05;;;;;;;12.43;11.18;;;;;;;;;;5008182;28;20038;-68
2021/07/03 03:27:30;;;;;;;13.20;11.77;;;;;;;;;;5014716;28;20022;-68
2021/07/03 03:29:55;;;;;;;10.98;9.98;;;;;;;;;;5009733;28;20041;-68
2021/07/03 03:32:21;;;;;;;10.98;9.98;;;;;;;;;;5006646;28;20030;-68
2021/07/03 03:34:46;;;;;;;14.73;11.65;;;;;;;;;;5010118;28;20034;-69
2021/07/03 03:37:11;;;;;;;13.38;11.38;;;;;;;;;;5008267;28;20042;-67
2021/07/03 03:39:36;;;;;;;12.75;11.50;;;;;;;;;;5008313;28;20289;-68
2021/07/03 03:42:02;;;;;;;11.68;9.27;;;;;;;;;;5010192;28;20514;-67
2021/07/03 03:44:27;;;;;;;11.32;10.10;;;;;;;;;;5013301;28;20724;-68
2021/07/03 03:46:53;;;;;;;13.15;9.43;;;;;;;;;;5042871;28;20495;-68
2021/07/03 03:49:19;;;;;;;9.60;8.70;;;;;;;;;;5027955;28;20095;-68
2021/07/03 03:51:44;;;;;;;11.68;10.52;;;;;;;;;;5026526;28;20029;-68
2021/07/03 03:54:09;;;;;;;15.00;10.52;;;;;;;;;;5027359;28;20038;-68
2021/07/03 03:56:35;;;;;;;10.32;9.15;;;;;;;;;;5026439;28;20021;-67
2021/07/03 03:59:00;;;;;;;15.35;9.57;;;;;;;;;;5026986;28;20478;-68
2021/07/03 04:01:25;;;;;;;10.05;8.95;;;;;;;;;;5009815;28;20061;-68
2021/07/03 04:03:50;;;;;;;10.07;8.98;;;;;;;;;;5010956;28;20045;-68
2021/07/03 04:06:15;;;;;;;11.43;8.90;;;;;;;;;;5011843;28;20534;-68
2021/07/03 04:08:41;;;;;;;8.45;6.82;;;;;;;;;;5011726;28;20034;-68
2021/07/03 04:11:06;;;;;;;6.28;5.75;;;;;;;;;;5013734;28;20382;-68
2021/07/03 04:13:31;;;;;;;6.85;6.25;;;;;;;;;;5017690;28;20050;-68
2021/07/03 04:15:56;;;;;;;7.03;6.32;;;;;;;;;;5011315;28;20034;-69
2021/07/03 04:18:22;;;;;;;6.57;6.03;;;;;;;;;;5010253;28;20048;-68
2021/07/03 04:20:47;;;;;;;6.43;5.82;;;;;;;;;;5011678;28;20026;-69
2021/07/03 04:23:12;;;;;;;5.90;5.40;;;;;;;;;;5012915;28;20026;-69
2021/07/03 04:25:37;;;;;;;5.57;5.18;;;;;;;;;;5011665;28;20296;-68
2021/07/03 04:28:03;;;;;;;6.95;5.43;;;;;;;;;;5017372;28;20042;-69
2021/07/03 04:30:28;;;;;;;5.85;5.35;;;;;;;;;;5019420;28;20096;-68
2021/07/03 04:32:53;;;;;;;8.80;5.50;;;;;;;;;;5009617;28;20117;-70
2021/07/03 04:35:18;;;;;;;6.90;5.25;;;;;;;;;;5011546;28;20463;-69
2021/07/03 04:37:44;;;;;;;5.55;5.05;;;;;;;;;;5013325;28;20018;-68
2021/07/03 04:40:09;;;;;;;6.00;5.50;;;;;;;;;;5010009;28;20034;-68
2021/07/03 04:42:35;;;;;;;5.18;4.78;;;;;;;;;;5015084;28;20284;-68
2021/07/03 04:45:01;;;;;;;5.95;5.45;;;;;;;;;;5012234;28;20057;-70
2021/07/03 04:47:26;;;;;;;5.82;5.20;;;;;;;;;;5011223;28;20032;-68
2021/07/03 04:49:51;;;;;;;5.77;5.27;;;;;;;;;;5012732;28;20094;-68
2021/07/03 04:52:16;;;;;;;6.05;5.55;;;;;;;;;;5010477;28;20273;-68
2021/07/03 04:54:42;;;;;;;5.97;5.47;;;;;;;;;;5010783;28;20042;-68
2021/07/03 04:57:08;;;;;;;5.72;5.32;;;;;;;;;;5010704;28;20029;-68
2021/07/03 04:59:34;;;;;;;6.50;6.00;;;;;;;;;;5015706;28;20017;-68
2021/07/03 05:01:59;;;;;;;8.10;5.50;;;;;;;;;;5012897;28;20033;-69
2021/07/03 05:04:24;;;;;;;6.07;5.37;;;;;;;;;;5010257;28;20380;-67
2021/07/03 05:06:50;;;;;;;6.03;5.53;;;;;;;;;;5009779;28;20388;-68
2021/07/03 05:09:15;;;;;;;7.53;5.30;;;;;;;;;;5010828;28;20265;-67
2021/07/03 05:11:40;;;;;;;5.47;5.05;;;;;;;;;;5008784;28;20297;-68
2021/07/03 05:14:05;;;;;;;6.13;5.63;;;;;;;;;;5015426;28;20041;-68
2021/07/03 05:16:30;;;;;;;7.15;5.65;;;;;;;;;;5010697;28;20572;-67
2021/07/03 05:18:56;;;;;;;6.10;5.60;;;;;;;;;;5010503;28;20176;-68
2021/07/03 05:21:21;;;;;;;6.37;5.87;;;;;;;;;;5010451;28;20792;-68
2021/07/03 05:23:46;;;;;;;5.30;4.80;;;;;;;;;;5009970;28;20312;-67
2021/07/03 05:26:11;;;;;;;5.47;5.07;;;;;;;;;;5010874;28;20022;-67
2021/07/03 05:28:36;;;;;;;5.18;4.70;;;;;;;;;;5012859;28;20339;-67
2021/07/03 05:31:02;;;;;;;4.85;4.45;;;;;;;;;;5008801;28;20022;-68
2021/07/03 05:33:27;;;;;;;4.82;4.43;;;;;;;;;;5009660;28;20526;-68
2021/07/03 05:35:53;;;;;;;4.63;4.32;;;;;;;;;;5010265;28;20092;-68
2021/07/03 05:38:18;;;;;;;6.07;5.40;;;;;;;;;;5010274;28;20386;-68
2021/07/03 05:40:44;;;;;;;5.30;4.90;;;;;;;;;;5011923;28;20018;-68
2021/07/03 05:43:09;;;;;;;5.53;4.90;;;;;;;;;;5012822;28;20104;-67
2021/07/03 05:45:34;;;;;;;4.97;4.53;;;;;;;;;;5009900;28;20109;-68
2021/07/03 05:47:59;;;;;;;5.40;4.90;;;;;;;;;;5010440;28;20077;-68
2021/07/03 05:50:26;;;;;;;5.97;5.35;;;;;;;;;;5010568;28;20304;-68
2021/07/03 05:52:52;;;;;;;5.30;4.85;;;;;;;;;;5011580;28;20029;-70
2021/07/03 05:55:17;;;;;;;5.45;4.90;;;;;;;;;;5009721;28;20391;-68
2021/07/03 05:57:43;;;;;;;5.60;5.07;;;;;;;;;;5011173;28;20025;-69
2021/07/03 06:00:10;;;;;;;5.70;5.28;;;;;;;;;;5008311;28;20041;-68
2021/07/03 06:02:35;;;;;;;5.68;5.07;;;;;;;;;;5007808;28;20032;-68
2021/07/03 06:05:00;;;;;;;4.95;4.55;;;;;;;;;;5011390;28;20033;-67
2021/07/03 06:07:26;;;;;;;6.22;4.85;;;;;;;;;;5009743;28;20030;-69
2021/07/03 06:09:51;;;;;;;4.68;4.35;;;;;;;;;;5009614;28;20482;-69
2021/07/03 06:12:17;;;;;;;5.00;4.60;;;;;;;;;;5009139;28;20041;-68
2021/07/03 06:14:42;;;;;;;5.73;5.23;;;;;;;;;;5011533;28;20523;-68
2021/07/03 06:17:13;;;;;;;5.70;5.18;;;;;;;;;;5011201;28;20260;-67
2021/07/03 06:19:38;;;;;;;7.70;4.87;;;;;;;;;;5009643;28;20042;-69
2021/07/03 06:22:03;;;;;;;6.50;4.90;;;;;;;;;;5007073;28;20026;-68
2021/07/03 06:24:30;;;;;;;5.15;4.75;;;;;;;;;;5007481;28;20033;-69
2021/07/03 06:26:55;;;;;;;4.63;4.32;;;;;;;;;;5008132;28;20113;-68
2021/07/03 06:29:20;;;;;;;5.13;4.63;;;;;;;;;;5009914;28;20416;-69
2021/07/03 06:31:46;;;;;;;4.77;4.47;;;;;;;;;;5026038;28;20701;-69
2021/07/03 06:34:11;;;;;;;5.13;4.63;;;;;;;;;;5026148;28;20303;-68
2021/07/03 06:36:36;;;;;;;5.15;4.75;;;;;;;;;;5028070;28;20108;-69
2021/07/03 06:39:01;;;;;;;5.30;4.50;;;;;;;;;;5027994;28;20036;-69
2021/07/03 06:41:27;;;;;;;4.82;4.38;;;;;;;;;;5027719;28;20485;-70
2021/07/03 06:43:52;;;;;;;6.43;4.38;;;;;;;;;;5020357;28;20026;-68
2021/07/03 06:46:17;;;;;;;5.20;4.73;;;;;;;;;;5008149;28;20144;-69
2021/07/03 06:48:42;;;;;;;5.40;4.70;;;;;;;;;;5008146;28;20319;-69
2021/07/03 06:51:07;;;;;;;5.37;4.87;;;;;;;;;;5008869;28;20265;-68
2021/07/03 06:53:33;;;;;;;5.65;5.20;;;;;;;;;;5006846;28;20782;-68
2021/07/03 06:55:58;;;;;;;7.05;4.65;;;;;;;;;;5009247;28;20498;-69
2021/07/03 06:58:23;;;;;;;5.13;4.53;;;;;;;;;;5008164;28;20487;-68
2021/07/03 07:00:48;;;;;;;5.75;5.15;;;;;;;;;;5008430;28;20276;-68
2021/07/03 07:03:14;;;;;;;5.03;4.63;;;;;;;;;;5008003;28;20495;-69
2021/07/03 07:05:39;;;;;;;4.70;4.40;;;;;;;;;;5008385;28;20522;-69
2021/07/03 07:08:05;;;;;;;5.53;5.00;;;;;;;;;;5010465;28;20271;-68
2021/07/03 07:10:31;;;;;;;5.32;4.75;;;;;;;;;;5008598;28;20352;-68
2021/07/03 07:12:56;;;;;;;4.90;4.38;;;;;;;;;;5008191;28;20200;-70
2021/07/03 07:15:21;;;;;;;5.30;4.80;;;;;;;;;;5023234;28;20510;-69
2021/07/03 07:17:46;;;;;;;5.53;5.13;;;;;;;;;;5007620;28;20281;-70
2021/07/03 07:20:12;;;;;;;4.93;4.60;;;;;;;;;;5010501;28;20022;-69
2021/07/03 07:22:37;;;;;;;4.60;4.20;;;;;;;;;;5008359;28;20273;-69
2021/07/03 07:25:03;;;;;;;5.75;5.30;;;;;;;;;;5006596;28;20042;-69
2021/07/03 07:27:28;;;;;;;5.05;4.55;;;;;;;;;;5007817;28;20109;-68
2021/07/03 07:29:53;;;;;;;5.55;5.07;;;;;;;;;;5015083;28;20053;-69
2021/07/03 07:32:19;;;;;;;5.05;4.65;;;;;;;;;;5009807;28;20448;-68
2021/07/03 07:34:44;;;;;;;4.73;4.33;;;;;;;;;;5007498;28;20046;-69
2021/07/03 07:37:09;;;;;;;5.45;4.72;;;;;;;;;;5010661;28;20303;-69
2021/07/03 07:39:35;;;;;;;5.40;4.90;;;;;;;;;;5011354;28;20030;-68
2021/07/03 07:42:00;;;;;;;5.22;4.82;;;;;;;;;;5011063;28;20067;-69
2021/07/03 07:44:25;;;;;;;5.70;5.20;;;;;;;;;;5017895;28;20693;-69
2021/07/03 07:46:50;;;;;;;6.07;4.50;;;;;;;;;;5013950;28;20101;-69
2021/07/03 07:49:16;;;;;;;4.83;4.40;;;;;;;;;;5011187;28;20823;-69
2021/07/03 07:51:41;;;;;;;4.82;4.40;;;;;;;;;;5011076;28;20400;-70
2021/07/03 07:54:06;;;;;;;5.77;4.37;;;;;;;;;;5010621;28;20038;-69
2021/07/03 07:56:31;;;;;;;5.80;5.38;;;;;;;;;;5010981;28;20264;-69
2021/07/03 07:58:57;;;;;;;5.20;4.80;;;;;;;;;;5020247;28;20601;-69
2021/07/03 08:01:22;;;;;;;4.83;4.50;;;;;;;;;;5019846;28;20044;-69
2021/07/03 08:03:48;;;;;;;5.63;5.07;;;;;;;;;;5010343;28;20371;-69
2021/07/03 08:06:13;;;;;;;8.35;5.22;;;;;;;;;;5009273;28;20108;-69
2021/07/03 08:08:38;;;;;;;5.03;4.53;;;;;;;;;;5010803;28;20053;-70
2021/07/03 08:11:03;;;;;;;6.37;5.03;;;;;;;;;;5013558;28;20327;-69
2021/07/03 08:13:29;;;;;;;4.75;4.35;;;;;;;;;;5013544;28;20720;-70
2021/07/03 08:15:54;;;;;;;5.25;4.85;;;;;;;;;;5012173;28;20045;-69
2021/07/03 08:18:20;;;;;;;4.80;4.47;;;;;;;;;;5010586;28;20038;-70
2021/07/03 08:20:46;;;;;;;4.88;4.47;;;;;;;;;;5011274;28;20088;-69
2021/07/03 08:23:11;;;;;;;4.75;4.45;;;;;;;;;;5012801;28;20021;-69
2021/07/03 08:25:36;;;;;;;6.03;5.13;;;;;;;;;;5011308;28;20034;-69
2021/07/03 08:28:02;;;;;;;5.45;4.57;;;;;;;;;;5011418;28;20277;-69
2021/07/03 08:30:28;;;;;;;5.00;4.60;;;;;;;;;;5016389;28;20044;-68
2021/07/03 08:32:53;;;;;;;5.05;4.65;;;;;;;;;;5010787;28;20124;-70
2021/07/03 08:35:18;;;;;;;4.60;4.07;;;;;;;;;;5013071;28;20034;-69
2021/07/03 08:37:44;;;;;;;4.80;4.40;;;;;;;;;;5011112;28;20064;-70
2021/07/03 08:40:09;;;;;;;5.65;5.13;;;;;;;;;;5010896;28;20042;-69
2021/07/03 08:42:35;;;;;;;5.22;4.57;;;;;;;;;;5010611;28;20022;-69
2021/07/03 08:45:00;;;;;;;5.13;4.72;;;;;;;;;;5015400;28;20062;-70
2021/07/03 08:47:26;;;;;;;5.40;5.00;;;;;;;;;;5010669;28;20301;-70
2021/07/03 08:49:56;;;;;;;5.05;4.60;;;;;;;;;;5012892;28;20257;-68
2021/07/03 08:52:21;;;;;;;5.00;4.70;;;;;;;;;;5010273;28;20048;-69
2021/07/03 08:55:01;;;;;;;6.82;5.00;;;;;;;;;;5010505;28;20034;-69
2021/07/03 08:57:27;;;;;;;4.30;4.00;;;;;;;;;;5010487;28;20421;-68
2021/07/03 08:59:58;;;;;;;5.57;5.17;;;;;;;;;;5015716;28;20042;-70
2021/07/03 09:02:23;;;;;;;;;;;;;;;;;;5016463;28;20497;-70
2021/07/03 09:04:49;;;;;;;4.85;4.45;;;;;;;;;;5012223;28;20031;-69
2021/07/03 09:07:15;;;;;;;5.10;4.70;;;;;;;;;;5010590;28;20037;-69
2021/07/03 09:09:41;;;;;;;5.72;5.22;;;;;;;;;;5010700;28;20045;-69
2021/07/03 09:12:06;;;;;;;4.88;4.50;;;;;;;;;;5010351;28;20026;-69
2021/07/03 09:14:32;;;;;;;10.10;5.05;;;;;;;;;;5013856;28;20037;-68
2021/07/03 09:17:00;;;;;;;4.93;4.53;;;;;;;;;;5012211;28;20109;-68
2021/07/03 09:19:26;;;;;;;5.15;4.82;;;;;;;;;;5010359;28;20038;-68
2021/07/03 09:21:52;;;;;;;5.22;4.80;;;;;;;;;;5010371;28;20038;-68
2021/07/03 09:24:17;;;;;;;5.05;4.65;;;;;;;;;;5009743;28;20022;-69
2021/07/03 09:26:43;;;;;;;6.83;5.30;;;;;;;;;;5008657;28;20470;-69
2021/07/03 09:29:11;;;;;;;5.53;5.00;;;;;;;;;;5015104;28;20285;-69
2021/07/03 09:31:36;;;;;;;5.57;4.22;;;;;;;;;;5009584;28;20269;-70
2021/07/03 09:34:01;;;;;;;6.75;4.30;;;;;;;;;;5009866;28;20408;-70
2021/07/03 09:36:28;;;;;;;4.90;4.50;;;;;;;;;;5010452;28;20036;-69
2021/07/03 09:38:54;;;;;;;5.25;4.85;;;;;;;;;;5010041;28;20614;-70
2021/07/03 09:41:30;;;;;;;4.40;4.05;;;;;;;;;;5011810;28;20025;-71
2021/07/03 09:43:56;;;;;;;5.03;4.60;;;;;;;;;;5012214;28;20048;-71
2021/07/03 09:46:27;;;;;;;5.03;4.50;;;;;;;;;;5009604;28;20029;-70
2021/07/03 09:48:54;;;;;;;4.88;4.47;;;;;;;;;;5009971;28;20030;-70
2021/07/03 09:51:26;;;;;;;5.40;4.90;;;;;;;;;;5008336;28;20468;-71
2021/07/03 09:53:52;;;;;;;5.28;4.88;;;;;;;;;;5007870;28;20128;-71
2021/07/03 09:56:18;;;;;;;5.57;4.55;;;;;;;;;;5010109;28;20452;-70
2021/07/03 09:58:44;;;;;;;4.60;4.30;;;;;;;;;;5010967;28;20038;-70
2021/07/03 10:01:09;;;;;;;5.28;4.80;;;;;;;;;;5035964;28;20409;-70
2021/07/03 10:03:34;;;;;;;5.13;4.63;;;;;;;;;;5028701;28;20037;-69
2021/07/03 10:06:01;;;;;;;5.20;4.72;;;;;;;;;;5029048;28;20271;-69
2021/07/03 10:08:28;;;;;;;4.72;4.28;;;;;;;;;;5029070;28;20018;-70
2021/07/03 10:10:55;;;;;;;5.35;4.85;;;;;;;;;;5029638;28;20014;-70
2021/07/03 10:13:21;;;;;;;5.72;4.20;;;;;;;;;;5028603;28;20038;-70
2021/07/03 10:15:46;;;;;;;5.35;4.85;;;;;;;;;;5011857;28;20446;-70
2021/07/03 10:18:19;;;;;;;6.18;5.60;;;;;;;;;;5009599;28;20467;-70
2021/07/03 10:20:44;;;;;;;5.07;4.70;;;;;;;;;;5009056;28;20025;-70
2021/07/03 10:23:11;;;;;;;7.28;4.72;;;;;;;;;;5009096;28;20108;-69
2021/07/03 10:25:40;;;;;;;5.03;4.63;;;;;;;;;;5009042;28;20073;-70
2021/07/03 10:28:15;;;;;;;4.82;4.43;;;;;;;;;;5009237;28;20065;-71
2021/07/03 10:30:42;;;;;;;5.13;4.70;;;;;;;;;;5009764;28;20034;-70
2021/07/03 10:33:12;;;;;;;5.05;4.60;;;;;;;;;;5026516;28;20376;-70
2021/07/03 10:35:45;;;;;;;4.97;4.57;;;;;;;;;;5028631;28;20672;-69
2021/07/03 10:38:16;;;;;;;6.38;5.88;;;;;;;;;;5030671;28;20023;-70
2021/07/03 10:40:41;;;;;;;5.47;4.70;;;;;;;;;;5028557;28;20061;-69
2021/07/03 10:43:08;;;;;;;6.13;5.20;;;;;;;;;;5026634;28;20435;-69
2021/07/03 10:45:42;;;;;;;7.03;6.32;;;;;;;;;;5012904;28;20065;-70
2021/07/03 10:48:13;;;;;;;5.45;5.00;;;;;;;;;;5008610;28;20036;-69
2021/07/03 10:50:38;;;;;;;5.38;4.93;;;;;;;;;;5008408;28;20018;-69
2021/07/03 10:53:03;;;;;;;6.43;5.83;;;;;;;;;;5009937;28;20538;-69
2021/07/03 10:55:30;;;;;;;6.10;5.70;;;;;;;;;;5008460;28;20284;-70
2021/07/03 10:57:56;;;;;;;6.15;5.65;;;;;;;;;;5008508;28;20269;-69
2021/07/03 11:00:22;;;;;;;5.65;5.25;;;;;;;;;;5016161;28;20029;-70
2021/07/03 11:02:48;;;;;;;6.35;5.43;;;;;;;;;;5007786;28;20113;-71
2021/07/03 11:05:14;;;;;;;5.47;5.07;;;;;;;;;;5009730;28;20022;-69
2021/07/03 11:07:40;;;;;;;5.05;4.65;;;;;;;;;;5006674;28;20037;-69
2021/07/03 11:10:05;;;;;;;4.80;4.40;;;;;;;;;;5006915;28;20124;-70
2021/07/03 11:12:41;;;;;;;5.13;4.65;;;;;;;;;;5007300;28;20093;-70
2021/07/03 11:15:07;;;;;;;4.60;4.30;;;;;;;;;;5018189;28;20176;-69
2021/07/03 11:17:32;;;;;;;4.45;4.15;;;;;;;;;;5012331;28;20097;-70
2021/07/03 11:19:57;;;;;;;5.53;4.50;;;;;;;;;;5009407;28;20018;-71
2021/07/03 11:22:23;;;;;;;5.13;4.80;;;;;;;;;;5007239;28;20323;-70
2021/07/03 11:24:55;;;;;;;5.65;5.13;;;;;;;;;;5007499;28;20566;-70
2021/07/03 11:27:33;;;;;;;6.47;4.97;;;;;;;;;;5007501;28;20037;-70
2021/07/03 11:30:00;;;;;;;6.10;5.60;;;;;;;;;;5014228;28;20030;-71
2021/07/03 11:32:26;;;;;;;5.78;5.25;;;;;;;;;;5007141;28;20232;-69
2021/07/03 11:34:52;;;;;;;5.63;5.03;;;;;;;;;;5009250;28;20034;-70
2021/07/03 11:37:31;;;;;;;5.40;5.00;;;;;;;;;;5007533;28;20030;-70
2021/07/03 11:39:57;;;;;;;5.20;4.75;;;;;;;;;;5006084;28;20030;-70
2021/07/03 11:42:26;;;;;;;5.03;4.63;;;;;;;;;;5007095;28;20033;-70
2021/07/03 11:44:52;;;;;;;5.25;4.85;;;;;;;;;;5012343;28;20032;-69
2021/07/03 11:47:17;;;;;;;5.43;5.00;;;;;;;;;;5009168;28;20021;-70
2021/07/03 11:49:43;;;;;;;5.37;4.93;;;;;;;;;;5007366;28;20491;-70
2021/07/03 11:52:08;;;;;;;5.17;4.23;;;;;;;;;;5007053;28;20280;-70
2021/07/03 11:54:33;;;;;;;5.22;4.72;;;;;;;;;;5005302;28;20281;-69
2021/07/03 11:56:58;;;;;;;5.30;4.90;;;;;;;;;;5007058;28;20491;-69
2021/07/03 11:59:24;;;;;;;5.70;5.20;;;;;;;;;;5010302;28;20275;-69
2021/07/03 12:01:50;;;;;;;5.05;4.65;;;;;;;;;;5011317;28;20014;-70
2021/07/03 12:04:15;;;;;;;4.68;4.30;;;;;;;;;;4160124;28;24380728;-70
2021/07/03 12:06:40;;;;;;;4.93;4.53;;;;;;;;;;4994254;28;20522;-70
2021/07/03 12:09:12;;;;;;;4.68;4.28;;;;;;;;;;5008169;28;20032;-70
2021/07/03 12:11:38;;;;;;;4.50;4.10;;;;;;;;;;5008029;28;20020;-70
2021/07/03 12:14:11;;;;;;;4.30;4.00;;;;;;;;;;5009218;28;20014;-70
2021/07/03 12:16:36;;;;;;;4.13;3.90;;;;;;;;;;5006576;28;20038;-69
2021/07/03 12:19:01;;;;;;;5.35;4.15;;;;;;;;;;5026667;28;20030;-69
2021/07/03 12:21:30;;;;;;;4.80;4.25;;;;;;;;;;5028177;28;20029;-70
2021/07/03 12:23:57;;;;;;;4.70;4.30;;;;;;;;;;5030946;28;20029;-69
2021/07/03 12:26:24;;;;;;;4.72;4.43;;;;;;;;;;5031584;28;20040;-70
2021/07/03 12:29:13;;;;;;;4.78;4.40;;;;;;;;;;5031692;28;20050;-69
2021/07/03 12:31:40;;;;;;;4.28;3.97;;;;;;;;;;5008059;28;20046;-70
2021/07/03 12:34:05;;;;;;;3.95;3.65;;;;;;;;;;5010818;28;20045;-69
2021/07/03 12:36:31;;;;;;;4.22;3.92;;;;;;;;;;5011675;28;20143;-69
2021/07/03 12:39:09;;;;;;;4.75;4.35;;;;;;;;;;5011333;28;20121;-70
2021/07/03 12:41:35;;;;;;;4.20;3.90;;;;;;;;;;5010434;28;20484;-69
2021/07/03 12:44:01;;;;;;;4.38;4.07;;;;;;;;;;5012416;28;20108;-69
2021/07/03 12:46:33;;;;;;;4.43;4.03;;;;;;;;;;5015007;28;20030;-69
2021/07/03 12:48:59;;;;;;;4.20;3.90;;;;;;;;;;5010897;28;20129;-70
2021/07/03 12:51:28;;;;;;;3.97;3.67;;;;;;;;;;5009662;28;20535;-69
2021/07/03 12:53:56;;;;;;;4.75;4.35;;;;;;;;;;5010246;28;20034;-69
2021/07/03 12:56:22;;;;;;;4.72;4.32;;;;;;;;;;5012761;28;20118;-70
2021/07/03 12:58:55;;;;;;;4.65;4.32;;;;;;;;;;5010427;28;20149;-70
2021/07/03 13:01:26;;;;;;;4.93;4.53;;;;;;;;;;5012596;28;20029;-70
2021/07/03 13:03:52;;;;;;;4.93;4.22;;;;;;;;;;5027423;28;20044;-70
2021/07/03 13:06:18;;;;;;;3.60;3.40;;;;;;;;;;5030644;28;20394;-70
2021/07/03 13:08:43;;;;;;;4.20;3.92;;;;;;;;;;5030421;28;20261;-69
2021/07/03 13:11:08;;;;;;;4.63;4.33;;;;;;;;;;5032388;28;20021;-70
2021/07/03 13:13:34;;;;;;;3.73;3.30;;;;;;;;;;5029907;28;20636;-70
2021/07/03 13:15:59;;;;;;;4.53;4.22;;;;;;;;;;5019439;28;20313;-70
2021/07/03 13:18:24;;;;;;;3.60;3.33;;;;;;;;;;5023237;28;20116;-70
2021/07/03 13:20:50;;;;;;;4.50;4.20;;;;;;;;;;5030333;28;20044;-69
2021/07/03 13:23:15;;;;;;;4.57;4.15;;;;;;;;;;5031970;28;20264;-70
2021/07/03 13:25:41;;;;;;;3.97;3.63;;;;;;;;;;5030124;28;20056;-70
2021/07/03 13:28:07;;;;;;;4.32;4.03;;;;;;;;;;5030203;28;20021;-69
2021/07/03 13:30:32;;;;;;;4.53;4.18;;;;;;;;;;5022633;28;20108;-69
2021/07/03 13:32:59;;;;;;;4.50;4.15;;;;;;;;;;5008973;28;20033;-71
2021/07/03 13:35:25;;;;;;;3.95;3.75;;;;;;;;;;5010008;28;20021;-68
2021/07/03 13:37:51;;;;;;;3.70;3.50;;;;;;;;;;5011969;28;20014;-70
2021/07/03 13:40:16;;;;;;;3.97;3.67;;;;;;;;;;5009939;28;20034;-71
2021/07/03 13:42:41;;;;;;;7.63;4.43;;;;;;;;;;5009593;28;20034;-70
2021/07/03 13:45:07;;;;;;;4.03;3.73;;;;;;;;;;5011690;28;20404;-70
2021/07/03 13:47:32;;;;;;;4.70;3.85;;;;;;;;;;5009815;28;20610;-70
2021/07/03 13:49:58;;;;;;;4.00;3.70;;;;;;;;;;5011806;28;20022;-69
2021/07/03 13:52:23;;;;;;;4.88;3.53;;;;;;;;;;5009297;28;20034;-69
2021/07/03 13:54:49;;;;;;;3.97;3.77;;;;;;;;;;5009540;28;20046;-69
2021/07/03 13:57:14;;;;;;;4.22;3.90;;;;;;;;;;5009590;28;20272;-68
2021/07/03 13:59:39;;;;;;;4.17;3.87;;;;;;;;;;5009523;28;20123;-69
2021/07/03 14:02:05;;;;;;;4.30;3.93;;;;;;;;;;5018378;28;20257;-69
2021/07/03 14:04:30;;;;;;;4.33;3.93;;;;;;;;;;5008792;28;20277;-69
2021/07/03 14:06:55;;;;;;;4.27;3.87;;;;;;;;;;5009529;28;20260;-69
2021/07/03 14:09:20;;;;;;;5.60;3.93;;;;;;;;;;5009521;28;20256;-69
2021/07/03 14:11:46;;;;;;;5.10;3.90;;;;;;;;;;5009460;28;20026;-69
2021/07/03 14:14:11;;;;;;;4.07;3.78;;;;;;;;;;5011256;28;20058;-69
2021/07/03 14:16:37;;;;;;;4.10;3.70;;;;;;;;;;5016846;28;20116;-70
2021/07/03 14:19:02;;;;;;;3.85;3.47;;;;;;;;;;5008737;28;20285;-69
2021/07/03 14:21:27;;;;;;;3.92;3.63;;;;;;;;;;5009177;28;20050;-69
2021/07/03 14:23:52;;;;;;;4.37;3.93;;;;;;;;;;5008719;28;20030;-69
2021/07/03 14:26:18;;;;;;;4.23;3.93;;;;;;;;;;5010984;28;20280;-70
2021/07/03 14:28:43;;;;;;;4.07;3.78;;;;;;;;;;5009262;28;20018;-69
2021/07/03 14:31:09;;;;;;;3.63;3.42;;;;;;;;;;5016249;28;20038;-69